Time;durP1;ratioP1;P1;durP2;ratioP2;P2;SDS_P1;SDS_P2;PMS_P1;PMS_P2;Temp;Humidity;BMP_temperature;BMP_pressure;BME280_temperature;BME280_humidity;BME280_pressure;Samples;Min_cycle;Max_cycle;Signal;HPM_P1;HPM_P2
2023/12/10 00:01:07;;;;;;;23.60;13.10;;;;;;;0.76;100.00;99345.86;105111;1256;73579;-48
2023/12/10 00:03:51;;;;;;;19.00;11.40;;;;;;;0.77;100.00;99339.15;105124;1261;81404;-47
2023/12/10 00:06:20;;;;;;;24.30;13.20;;;;;;;0.77;100.00;99339.00;105111;1257;71578;-48
2023/12/10 00:08:48;;;;;;;24.00;13.20;;;;;;;0.78;100.00;99330.73;105088;1260;69961;-48
2023/12/10 00:11:16;;;;;;;23.40;13.70;;;;;;;0.78;100.00;99334.51;105106;1260;70094;-48
2023/12/10 00:13:45;;;;;;;21.30;12.60;;;;;;;0.78;100.00;99325.55;105173;1260;73217;-49
2023/12/10 00:16:14;;;;;;;27.00;14.10;;;;;;;0.78;100.00;99320.07;105183;1260;81382;-48
2023/12/10 00:18:42;;;;;;;25.50;13.30;;;;;;;0.78;100.00;99319.02;105164;1257;72119;-47
2023/12/10 00:21:14;;;;;;;23.90;13.60;;;;;;;0.78;100.00;99322.13;105221;1261;69988;-48
2023/12/10 00:23:42;;;;;;;21.90;13.00;;;;;;;0.78;100.00;99324.54;105130;1257;69951;-47
2023/12/10 00:26:11;;;;;;;23.30;12.80;;;;;;;0.79;100.00;99317.65;105175;1260;72957;-47
2023/12/10 00:28:39;;;;;;;24.40;14.20;;;;;;;0.79;100.00;99316.27;105156;1260;82843;-48
2023/12/10 00:31:08;;;;;;;24.80;13.50;;;;;;;0.78;100.00;99317.14;105114;1256;71665;-48
2023/12/10 00:33:36;;;;;;;26.10;14.00;;;;;;;0.79;100.00;99318.33;105185;1257;69891;-48
2023/12/10 00:36:05;;;;;;;27.50;15.00;;;;;;;0.79;100.00;99315.23;105208;1257;71173;-48
2023/12/10 00:38:34;;;;;;;24.60;14.20;;;;;;;0.80;100.00;99319.34;105239;1260;72759;-48
2023/12/10 00:41:02;;;;;;;28.00;15.60;;;;;;;0.81;100.00;99324.48;105129;1260;81941;-48
2023/12/10 00:43:31;;;;;;;28.40;14.20;;;;;;;0.80;100.00;99325.52;105170;1257;70083;-48
2023/12/10 00:45:59;;;;;;;23.10;13.70;;;;;;;0.81;100.00;99330.50;105169;1260;69918;-48
2023/12/10 00:48:28;;;;;;;24.20;13.30;;;;;;;0.82;100.00;99328.09;105128;1260;69993;-49
2023/12/10 00:50:57;;;;;;;26.80;15.20;;;;;;;0.83;100.00;99330.47;105461;1256;74262;-47
2023/12/10 00:53:25;;;;;;;26.60;14.80;;;;;;;0.84;100.00;99329.95;105147;1257;82677;-50
2023/12/10 00:55:53;;;;;;;33.30;17.60;;;;;;;0.83;100.00;99327.89;105186;1257;72720;-49
2023/12/10 00:58:21;;;;;;;25.20;14.10;;;;;;;0.84;100.00;99326.67;105409;1257;69992;-49
2023/12/10 01:00:49;;;;;;;26.20;14.20;;;;;;;0.85;100.00;99330.44;105190;1256;69959;-50
2023/12/10 01:03:18;;;;;;;27.20;14.00;;;;;;;0.85;100.00;99334.39;105196;1256;73135;-49
2023/12/10 01:05:46;;;;;;;25.50;13.40;;;;;;;0.85;100.00;99326.98;105157;1257;80704;-49
2023/12/10 01:08:16;;;;;;;26.30;13.80;;;;;;;0.86;100.00;99331.29;105114;1260;72264;-51
2023/12/10 01:10:44;;;;;;;26.40;13.90;;;;;;;0.87;100.00;99340.05;105117;1264;69961;-50
2023/12/10 01:13:12;;;;;;;23.90;13.70;;;;;;;0.88;100.00;99341.56;105197;1260;70425;-49
2023/12/10 01:15:41;;;;;;;21.60;13.20;;;;;;;0.90;100.00;99343.43;105152;1256;72750;-50
2023/12/10 01:18:10;;;;;;;22.30;13.10;;;;;;;0.92;100.00;99343.76;105217;1260;82701;-50
2023/12/10 01:20:39;;;;;;;23.20;13.70;;;;;;;0.93;100.00;99337.73;105186;1257;72137;-49
2023/12/10 01:23:07;;;;;;;20.00;12.70;;;;;;;0.93;100.00;99334.29;105072;1256;70671;-50
2023/12/10 01:25:35;;;;;;;23.10;14.30;;;;;;;0.94;100.00;99326.18;105196;1256;69899;-49
2023/12/10 01:28:04;;;;;;;22.10;13.00;;;;;;;0.94;100.00;99325.66;105193;1257;72887;-48
2023/12/10 01:30:32;;;;;;;21.00;12.60;;;;;;;0.94;100.00;99320.16;105128;1260;82188;-49
2023/12/10 01:33:01;;;;;;;21.20;12.30;;;;;;;0.94;100.00;99319.45;105134;1257;72966;-48
2023/12/10 01:35:29;;;;;;;20.10;12.30;;;;;;;0.94;100.00;99319.29;105106;1260;70389;-48
2023/12/10 01:37:59;;;;;;;23.20;13.00;;;;;;;0.95;100.00;99326.00;105292;1256;70002;-49
2023/12/10 01:40:27;;;;;;;22.40;12.90;;;;;;;0.94;100.00;99327.03;105176;1257;73008;-49
2023/12/10 01:42:55;;;;;;;21.80;12.20;;;;;;;0.95;100.00;99333.58;105160;1261;82093;-50
2023/12/10 01:45:23;;;;;;;24.80;12.60;;;;;;;0.95;100.00;99340.45;105111;1256;72013;-50
2023/12/10 01:47:52;;;;;;;21.00;12.00;;;;;;;0.95;100.00;99352.48;105136;1260;69987;-48
2023/12/10 01:50:20;;;;;;;22.10;12.50;;;;;;;0.96;100.00;99354.02;105185;1256;69929;-49
2023/12/10 01:52:49;;;;;;;21.60;11.80;;;;;;;0.96;100.00;99345.75;105139;1257;72065;-48
2023/12/10 01:55:18;;;;;;;25.30;13.80;;;;;;;0.97;100.00;99341.10;105178;1257;82519;-49
2023/12/10 01:57:46;;;;;;;23.90;12.70;;;;;;;0.97;100.00;99330.10;105175;1256;71639;-50
2023/12/10 02:00:15;;;;;;;23.90;12.70;;;;;;;0.96;100.00;99322.36;105066;1257;69970;-48
2023/12/10 02:02:44;;;;;;;22.70;12.50;;;;;;;0.94;100.00;99319.48;105189;1261;70092;-50
2023/12/10 02:05:12;;;;;;;21.80;12.80;;;;;;;0.93;100.00;99318.98;105185;1262;73546;-50
2023/12/10 02:07:44;;;;;;;22.30;12.50;;;;;;;0.91;100.00;99317.79;105142;1260;81599;-51
2023/12/10 02:10:12;;;;;;;25.60;14.00;;;;;;;0.89;100.00;99324.35;105109;1257;72307;-51
2023/12/10 02:12:41;;;;;;;21.00;12.80;;;;;;;0.87;100.00;99319.25;105201;1261;69257;-55
2023/12/10 02:15:14;;;;;;;19.80;13.20;;;;;;;0.84;100.00;99316.70;105150;1261;69120;-50
2023/12/10 02:17:44;;;;;;;24.20;13.00;;;;;;;0.82;100.00;99317.08;105167;1256;72895;-54
2023/12/10 02:20:14;;;;;;;20.70;12.70;;;;;;;0.80;100.00;99315.21;105143;1261;82908;-53
2023/12/10 02:23:07;;;;;;;21.90;13.10;;;;;;;0.77;100.00;99310.44;105184;1257;70598;-54
2023/12/10 02:25:37;;;;;;;21.70;13.00;;;;;;;0.75;100.00;99308.92;105161;1260;69884;-51
2023/12/10 02:28:08;;;;;;;20.70;12.20;;;;;;;0.74;100.00;99308.42;105136;1256;69169;-51
2023/12/10 02:30:36;;;;;;;;;;;;;;;0.73;100.00;99302.25;105208;1256;73007;-51
2023/12/10 02:33:04;;;;;;;20.20;12.40;;;;;;;0.72;100.00;99299.33;105144;1257;81439;-50
2023/12/10 02:35:32;;;;;;;24.20;14.00;;;;;;;0.70;100.00;99296.30;105195;1256;72255;-51
2023/12/10 02:38:03;;;;;;;22.80;13.00;;;;;;;0.69;100.00;99295.09;105102;1261;69948;-53
2023/12/10 02:40:31;;;;;;;22.40;12.90;;;;;;;0.68;100.00;99300.45;105170;1260;70438;-50
2023/12/10 02:43:00;;;;;;;21.00;13.00;;;;;;;0.67;100.00;99300.77;105197;1256;73462;-51
2023/12/10 02:45:29;;;;;;;24.30;13.60;;;;;;;0.66;100.00;99304.91;105182;1256;81948;-50
2023/12/10 02:47:57;;;;;;;23.10;13.30;;;;;;;0.64;100.00;99301.16;105125;1256;71739;-50
2023/12/10 02:50:26;;;;;;;25.00;13.00;;;;;;;0.63;100.00;99299.46;105188;1256;69835;-51
2023/12/10 02:52:54;;;;;;;25.80;14.80;;;;;;;0.61;100.00;99300.02;105087;1260;69675;-51
2023/12/10 02:55:22;;;;;;;21.80;12.40;;;;;;;0.61;100.00;99296.74;105133;1257;73856;-50
2023/12/10 02:57:51;;;;;;;22.20;13.70;;;;;;;0.61;100.00;99296.05;105158;1261;82055;-53
2023/12/10 03:00:19;;;;;;;24.30;13.70;;;;;;;0.61;100.00;99302.75;105175;1260;72375;-51
2023/12/10 03:02:47;;;;;;;21.30;13.00;;;;;;;0.62;100.00;99302.73;105133;1256;69085;-51
2023/12/10 03:05:16;;;;;;;23.00;13.60;;;;;;;0.65;100.00;99307.17;105178;1260;69198;-52
2023/12/10 03:07:44;;;;;;;23.40;13.60;;;;;;;0.67;100.00;99303.88;105235;1257;73062;-51
2023/12/10 03:10:12;;;;;;;22.80;13.50;;;;;;;0.68;100.00;99305.75;105308;1260;82226;-52
2023/12/10 03:12:40;;;;;;;23.70;13.20;;;;;;;0.71;100.00;99303.83;105124;1260;72497;-54
2023/12/10 03:15:09;;;;;;;22.70;13.40;;;;;;;0.72;100.00;99305.02;105256;1257;69084;-51
2023/12/10 03:17:37;;;;;;;22.70;13.10;;;;;;;0.73;100.00;99308.09;105338;1256;69052;-53
2023/12/10 03:20:07;;;;;;;25.50;14.80;;;;;;;0.73;100.00;99305.86;105207;1256;74604;-52
2023/12/10 03:22:35;;;;;;;25.80;14.40;;;;;;;0.72;100.00;99308.28;105168;1260;80569;-52
2023/12/10 03:25:04;;;;;;;28.60;16.30;;;;;;;0.71;100.00;99310.70;105223;1257;71698;-52
2023/12/10 03:27:32;;;;;;;24.80;14.80;;;;;;;0.69;100.00;99309.87;105100;1261;69124;-50
2023/12/10 03:30:00;;;;;;;23.60;13.60;;;;;;;0.69;100.00;99312.45;105194;1260;69970;-51
2023/12/10 03:32:28;;;;;;;26.60;13.90;;;;;;;0.67;100.00;99317.29;105173;1257;73099;-53
2023/12/10 03:34:57;;;;;;;23.70;13.50;;;;;;;0.66;100.00;99318.16;105168;1260;81897;-51
2023/12/10 03:37:25;;;;;;;28.20;15.00;;;;;;;0.66;100.00;99313.86;105134;1257;72420;-52
2023/12/10 03:39:54;;;;;;;33.00;16.60;;;;;;;0.65;100.00;99311.65;105191;1261;69209;-53
2023/12/10 03:42:22;;;;;;;32.70;15.40;;;;;;;0.61;100.00;99311.87;105177;1260;69193;-52
2023/12/10 03:44:50;;;;;;;26.80;14.90;;;;;;;0.60;100.00;99307.41;105137;1260;72211;-53
2023/12/10 03:47:18;;;;;;;25.40;14.30;;;;;;;0.58;100.00;99307.45;105133;1257;80091;-54
2023/12/10 03:49:46;;;;;;;23.60;13.60;;;;;;;0.55;100.00;99312.47;105115;1256;70339;-56
2023/12/10 03:52:15;;;;;;;22.30;13.20;;;;;;;0.54;100.00;99315.93;105155;1257;69172;-57
2023/12/10 03:54:43;;;;;;;21.20;12.70;;;;;;;0.52;100.00;99314.05;105146;1257;69199;-57
2023/12/10 03:57:11;;;;;;;26.90;13.80;;;;;;;0.48;100.00;99308.42;105126;1257;74214;-57
2023/12/10 03:59:39;;;;;;;22.80;13.40;;;;;;;0.47;100.00;99314.13;105142;1262;83079;-56
2023/12/10 04:02:08;;;;;;;23.00;14.60;;;;;;;0.45;100.00;99318.98;105102;1257;70444;-56
2023/12/10 04:04:36;;;;;;;28.40;15.10;;;;;;;0.43;100.00;99327.74;105120;1260;69140;-55
2023/12/10 04:07:04;;;;;;;25.70;14.80;;;;;;;0.42;100.00;99328.64;105128;1260;69761;-55
2023/12/10 04:09:32;;;;;;;23.40;14.20;;;;;;;0.40;100.00;99327.45;105179;1256;74298;-55
2023/12/10 04:12:01;;;;;;;26.60;14.20;;;;;;;0.39;100.00;99325.08;105128;1257;81629;-52
2023/12/10 04:14:29;;;;;;;23.80;13.60;;;;;;;0.38;100.00;99328.68;105152;1256;71630;-55
2023/12/10 04:16:57;;;;;;;23.60;14.30;;;;;;;0.38;100.00;99331.08;105111;1261;69138;-53
2023/12/10 04:19:26;;;;;;;23.70;13.70;;;;;;;0.36;100.00;99335.23;105174;1260;69215;-54
2023/12/10 04:21:54;;;;;;;24.50;14.40;;;;;;;0.34;100.00;99339.90;105173;1256;73018;-54
2023/12/10 04:24:22;;;;;;;22.70;13.80;;;;;;;0.35;100.00;99344.19;105127;1261;83370;-55
2023/12/10 04:26:51;;;;;;;26.80;15.20;;;;;;;0.36;100.00;99346.24;105161;1257;72742;-55
2023/12/10 04:29:19;;;;;;;23.20;14.00;;;;;;;0.34;100.00;99345.57;105199;1262;69852;-55
2023/12/10 04:31:47;;;;;;;22.90;14.10;;;;;;;0.34;100.00;99347.30;105121;1261;69180;-52
2023/12/10 04:34:16;;;;;;;23.50;14.10;;;;;;;0.35;100.00;99351.06;105162;1256;73418;-53
2023/12/10 04:36:44;;;;;;;25.20;15.10;;;;;;;0.35;100.00;99353.81;105137;1262;82041;-55
2023/12/10 04:39:13;;;;;;;25.70;14.30;;;;;;;0.33;100.00;99354.00;105116;1257;73160;-53
2023/12/10 04:41:41;;;;;;;23.50;14.90;;;;;;;0.33;100.00;99352.80;105218;1260;69119;-55
2023/12/10 04:44:09;;;;;;;27.00;15.70;;;;;;;0.34;100.00;99354.52;105169;1256;69880;-55
2023/12/10 04:46:38;;;;;;;24.40;14.70;;;;;;;0.34;100.00;99363.79;105151;1260;73327;-54
2023/12/10 04:49:06;;;;;;;27.60;15.70;;;;;;;0.35;100.00;99365.16;105192;1257;80398;-56
2023/12/10 04:51:35;;;;;;;26.20;15.40;;;;;;;0.35;100.00;99368.23;105112;1260;72058;-54
2023/12/10 04:54:03;;;;;;;25.90;15.20;;;;;;;0.36;100.00;99369.27;105131;1260;69183;-56
2023/12/10 04:56:31;;;;;;;23.10;14.40;;;;;;;0.37;100.00;99368.23;105136;1261;69196;-54
2023/12/10 04:58:59;;;;;;;23.60;14.90;;;;;;;0.39;100.00;99372.16;105146;1257;71991;-55
2023/12/10 05:01:28;;;;;;;22.60;13.40;;;;;;;0.40;100.00;99376.95;105132;1262;81361;-53
2023/12/10 05:03:56;;;;;;;25.40;14.10;;;;;;;0.43;100.00;99379.33;105099;1256;70711;-54
2023/12/10 05:06:24;;;;;;;26.20;14.90;;;;;;;0.43;100.00;99379.83;105216;1257;69211;-56
2023/12/10 05:08:53;;;;;;;22.80;13.70;;;;;;;0.43;100.00;99386.20;105189;1262;69101;-55
2023/12/10 05:11:22;;;;;;;27.00;15.80;;;;;;;0.43;100.00;99384.46;105156;1256;72906;-55
2023/12/10 05:13:50;;;;;;;23.50;14.20;;;;;;;0.45;100.00;99382.91;105194;1262;80928;-54
2023/12/10 05:16:18;;;;;;;23.10;14.20;;;;;;;0.45;100.00;99394.24;105167;1257;70534;-55
2023/12/10 05:18:46;;;;;;;24.10;14.40;;;;;;;0.48;100.00;99393.52;105222;1260;69104;-54
2023/12/10 05:21:15;;;;;;;24.90;15.00;;;;;;;0.49;100.00;99389.73;105197;1256;69207;-56
2023/12/10 05:23:43;;;;;;;23.40;14.30;;;;;;;0.49;100.00;99388.53;105268;1261;74957;-54
2023/12/10 05:26:11;;;;;;;25.20;15.10;;;;;;;0.50;100.00;99390.75;105192;1260;81581;-55
2023/12/10 05:28:39;;;;;;;24.00;13.80;;;;;;;0.53;100.00;99389.17;105109;1261;71727;-56
2023/12/10 05:31:07;;;;;;;21.70;13.30;;;;;;;0.54;100.00;99391.38;105370;1258;69132;-58
2023/12/10 05:33:36;;;;;;;22.50;14.00;;;;;;;0.56;100.00;99399.79;105215;1256;69174;-54
2023/12/10 05:36:05;;;;;;;25.30;14.50;;;;;;;0.57;100.00;99403.73;105280;1260;72505;-52
2023/12/10 05:38:33;;;;;;;21.90;13.00;;;;;;;0.56;100.00;99401.50;105180;1261;82179;-51
2023/12/10 05:41:02;;;;;;;33.00;16.80;;;;;;;0.56;100.00;99407.00;105124;1262;70137;-52
2023/12/10 05:43:30;;;;;;;33.60;16.40;;;;;;;0.57;100.00;99412.50;105186;1257;69077;-53
2023/12/10 05:45:58;;;;;;;24.70;14.40;;;;;;;0.58;100.00;99414.04;105111;1261;69197;-54
2023/12/10 05:48:27;;;;;;;29.50;15.90;;;;;;;0.58;100.00;99416.95;105159;1257;73061;-52
2023/12/10 05:50:56;;;;;;;26.90;15.60;;;;;;;0.59;100.00;99417.45;105205;1256;81798;-53
2023/12/10 05:53:24;;;;;;;24.80;14.60;;;;;;;0.61;100.00;99417.94;105187;1257;72237;-54
2023/12/10 05:55:53;;;;;;;22.00;13.80;;;;;;;0.62;100.00;99417.41;105147;1261;69169;-51
2023/12/10 05:58:21;;;;;;;21.70;13.40;;;;;;;0.63;100.00;99416.20;105155;1256;69749;-53
2023/12/10 06:00:49;;;;;;;21.50;12.80;;;;;;;0.63;100.00;99421.87;105175;1257;74138;-53
2023/12/10 06:03:17;;;;;;;21.90;13.30;;;;;;;0.64;100.00;99426.34;105183;1262;81567;-52
2023/12/10 06:05:46;;;;;;;21.10;12.80;;;;;;;0.64;100.00;99424.27;105165;1257;73005;-54
2023/12/10 06:08:14;;;;;;;21.80;13.80;;;;;;;0.66;100.00;99421.66;105192;1260;69122;-56
2023/12/10 06:10:42;;;;;;;20.30;12.60;;;;;;;0.65;100.00;99427.87;105188;1257;69192;-56
2023/12/10 06:13:11;;;;;;;21.00;13.00;;;;;;;0.66;100.00;99430.43;105186;1257;73321;-49
2023/12/10 06:15:39;;;;;;;19.40;12.40;;;;;;;0.66;100.00;99435.75;105190;1262;81666;-50
2023/12/10 06:18:07;;;;;;;20.20;13.00;;;;;;;0.68;100.00;99432.83;105128;1257;71736;-50
2023/12/10 06:20:36;;;;;;;19.50;12.30;;;;;;;0.66;100.00;99440.56;105151;1262;70021;-49
2023/12/10 06:23:04;;;;;;;21.90;13.40;;;;;;;0.66;100.00;99446.07;105279;1262;69897;-53
2023/12/10 06:25:32;;;;;;;19.30;12.80;;;;;;;0.67;100.00;99446.93;105171;1260;71221;-55
2023/12/10 06:28:00;;;;;;;18.80;12.40;;;;;;;0.68;100.00;99447.10;105153;1261;83580;-52
2023/12/10 06:30:28;;;;;;;20.00;12.30;;;;;;;0.70;100.00;99452.06;105164;1257;70486;-55
2023/12/10 06:32:57;;;;;;;18.60;12.90;;;;;;;0.70;100.00;99451.71;105263;1260;69159;-55
2023/12/10 06:35:25;;;;;;;16.70;11.20;;;;;;;0.70;100.00;99456.35;105178;1256;69116;-54
2023/12/10 06:37:53;;;;;;;16.80;10.60;;;;;;;0.70;100.00;99460.48;105195;1257;71543;-56
2023/12/10 06:40:21;;;;;;;19.80;11.70;;;;;;;0.69;100.00;99466.67;105154;1261;83621;-50
2023/12/10 06:42:50;;;;;;;19.00;11.50;;;;;;;0.70;100.00;99468.89;105304;1257;73109;-53
2023/12/10 06:45:19;;;;;;;17.80;11.60;;;;;;;0.73;100.00;99467.49;105174;1260;69123;-55
2023/12/10 06:47:47;;;;;;;17.30;11.40;;;;;;;0.75;100.00;99470.04;105249;1260;69163;-56
2023/12/10 06:50:16;;;;;;;19.20;12.60;;;;;;;0.76;100.00;99469.52;105247;1256;73136;-55
2023/12/10 06:52:44;;;;;;;19.00;12.00;;;;;;;0.77;100.00;99472.42;105152;1260;81716;-55
2023/12/10 06:55:12;;;;;;;17.80;11.90;;;;;;;0.79;100.00;99476.70;105232;1256;71935;-52
2023/12/10 06:57:40;;;;;;;18.60;11.90;;;;;;;0.81;100.00;99483.55;105199;1257;69180;-55
2023/12/10 07:00:10;;;;;;;17.60;11.30;;;;;;;0.80;100.00;99482.87;105158;1260;69150;-54
2023/12/10 07:02:38;;;;;;;15.90;10.20;;;;;;;0.79;100.00;99488.73;105365;1260;74258;-54
2023/12/10 07:05:06;;;;;;;15.30;10.00;;;;;;;0.81;100.00;99495.25;105156;1261;81699;-54
2023/12/10 07:07:35;;;;;;;15.30;9.90;;;;;;;0.82;100.00;99498.33;105208;1256;71712;-55
2023/12/10 07:10:04;;;;;;;12.40;9.00;;;;;;;0.82;100.00;99495.22;105191;1257;69091;-55
2023/12/10 07:12:32;;;;;;;12.40;8.30;;;;;;;0.83;100.00;99499.52;105352;1257;69273;-56
2023/12/10 07:15:00;;;;;;;13.40;8.30;;;;;;;0.83;100.00;99495.56;105211;1257;74146;-50
2023/12/10 07:17:29;;;;;;;13.10;8.30;;;;;;;0.84;100.00;99500.55;105206;1256;81655;-58
2023/12/10 07:19:57;;;;;;;11.40;8.00;;;;;;;0.84;100.00;99507.92;105317;1257;72570;-56
2023/12/10 07:22:25;;;;;;;12.10;7.70;;;;;;;0.86;100.00;99510.32;105285;1258;69882;-54
2023/12/10 07:24:57;;;;;;;11.70;7.40;;;;;;;0.88;100.00;99511.50;105289;1257;69694;-55
2023/12/10 07:27:25;;;;;;;15.50;7.30;;;;;;;0.92;100.00;99514.55;105272;1256;73820;-55
2023/12/10 07:29:53;;;;;;;12.80;8.30;;;;;;;0.95;100.00;99521.39;105204;1257;81638;-49
2023/12/10 07:32:22;;;;;;;10.20;7.30;;;;;;;0.96;100.00;99521.56;105256;1257;72105;-54
2023/12/10 07:34:50;;;;;;;11.70;6.90;;;;;;;0.98;100.00;99525.15;105166;1259;69107;-55
2023/12/10 07:37:19;;;;;;;11.90;7.90;;;;;;;0.99;100.00;99526.16;105231;1262;69145;-54
2023/12/10 07:39:47;;;;;;;11.40;7.90;;;;;;;0.98;100.00;99527.38;105339;1256;73436;-52
2023/12/10 07:42:15;;;;;;;11.10;7.50;;;;;;;0.98;100.00;99529.45;105196;1262;82211;-58
2023/12/10 07:44:43;;;;;;;12.50;6.80;;;;;;;0.98;100.00;99528.06;105341;1262;70850;-57
2023/12/10 07:47:11;;;;;;;11.60;7.50;;;;;;;0.99;100.00;99533.73;105201;1257;69138;-58
2023/12/10 07:49:40;;;;;;;12.20;7.10;;;;;;;0.99;100.00;99532.70;105217;1260;69209;-57
2023/12/10 07:52:09;;;;;;;10.40;6.90;;;;;;;1.00;100.00;99536.99;105189;1256;73111;-57
2023/12/10 07:54:37;;;;;;;10.30;7.10;;;;;;;1.01;100.00;99536.63;105116;1260;81262;-57
2023/12/10 07:57:06;;;;;;;10.20;7.20;;;;;;;1.01;100.00;99540.59;105180;1256;71979;-58
2023/12/10 07:59:34;;;;;;;10.60;7.20;;;;;;;1.01;100.00;99541.46;105171;1260;69208;-57
2023/12/10 08:02:02;;;;;;;11.50;7.20;;;;;;;1.00;100.00;99543.35;105144;1262;69186;-57
2023/12/10 08:04:30;;;;;;;10.50;6.50;;;;;;;1.03;100.00;99547.45;105167;1257;73060;-58
2023/12/10 08:06:58;;;;;;;11.30;8.00;;;;;;;1.03;100.00;99553.30;105131;1261;81480;-57
2023/12/10 08:09:28;;;;;;;10.80;7.20;;;;;;;1.01;100.00;99554.35;105256;1257;72147;-58
2023/12/10 08:11:57;;;;;;;10.40;7.20;;;;;;;1.01;100.00;99557.10;105142;1261;69688;-58
2023/12/10 08:14:27;;;;;;;10.60;7.70;;;;;;;1.01;100.00;99553.49;105180;1261;69146;-58
2023/12/10 08:16:55;;;;;;;9.40;6.60;;;;;;;1.01;100.00;99560.89;105196;1257;72957;-58
2023/12/10 08:19:24;;;;;;;12.20;7.10;;;;;;;1.01;100.00;99558.30;105133;1257;80510;-58
2023/12/10 08:21:52;;;;;;;12.20;8.30;;;;;;;1.01;100.00;99562.27;105158;1260;72109;-58
2023/12/10 08:24:21;;;;;;;12.70;8.70;;;;;;;0.99;100.00;99561.24;105134;1260;69217;-58
2023/12/10 08:26:49;;;;;;;11.50;7.70;;;;;;;0.99;100.00;99572.09;105200;1260;69227;-58
2023/12/10 08:29:17;;;;;;;9.40;6.90;;;;;;;1.01;100.00;99579.13;105124;1262;73012;-58
2023/12/10 08:31:45;;;;;;;12.60;8.20;;;;;;;1.01;100.00;99566.91;105158;1262;81454;-58
2023/12/10 08:34:13;;;;;;;11.30;7.60;;;;;;;1.02;100.00;99573.43;105240;1262;70463;-58
2023/12/10 08:36:42;;;;;;;10.90;8.40;;;;;;;1.02;100.00;99572.23;105148;1257;69159;-58
2023/12/10 08:39:10;;;;;;;11.80;7.70;;;;;;;1.04;100.00;99568.77;105217;1262;69250;-58
2023/12/10 08:41:38;;;;;;;12.30;7.80;;;;;;;1.04;100.00;99572.04;105129;1260;71379;-58
2023/12/10 08:44:06;;;;;;;11.30;7.70;;;;;;;1.05;100.00;99575.82;105155;1263;81517;-58
2023/12/10 08:46:34;;;;;;;13.40;8.80;;;;;;;1.06;100.00;99583.02;105161;1258;72997;-58
2023/12/10 08:49:03;;;;;;;14.30;9.50;;;;;;;1.07;100.00;99574.58;105117;1260;69119;-58
2023/12/10 08:51:31;;;;;;;13.40;9.20;;;;;;;1.07;100.00;99573.71;105210;1262;69208;-58
2023/12/10 08:54:00;;;;;;;44.30;20.50;;;;;;;1.08;100.00;99575.25;105145;1261;73299;-58
2023/12/10 08:56:28;;;;;;;65.00;23.80;;;;;;;1.07;100.00;99579.91;105170;1260;83240;-58
2023/12/10 08:58:56;;;;;;;26.60;12.00;;;;;;;1.07;100.00;99585.77;105140;1262;73941;-58
2023/12/10 09:01:25;;;;;;;17.80;11.90;;;;;;;1.07;100.00;99589.71;105217;1260;69168;-58
2023/12/10 09:03:53;;;;;;;15.60;11.40;;;;;;;1.07;100.00;99587.48;105214;1260;69150;-57
2023/12/10 09:06:21;;;;;;;13.60;8.90;;;;;;;1.06;100.00;99581.82;105157;1257;73275;-58
2023/12/10 09:08:50;;;;;;;15.00;10.40;;;;;;;1.07;100.00;99587.98;105186;1262;81532;-58
2023/12/10 09:11:18;;;;;;;167.60;81.60;;;;;;;1.09;100.00;99585.40;105149;1257;72853;-57
2023/12/10 09:13:47;;;;;;;104.00;49.40;;;;;;;1.13;100.00;99585.02;105186;1258;69129;-58
2023/12/10 09:16:18;;;;;;;69.90;34.80;;;;;;;1.16;100.00;99581.52;105140;1260;69192;-57
2023/12/10 09:18:47;;;;;;;69.70;36.70;;;;;;;1.19;100.00;99587.36;105182;1257;71994;-57
2023/12/10 09:21:15;;;;;;;72.60;34.00;;;;;;;1.21;100.00;99593.52;105209;1262;81621;-57
2023/12/10 09:23:43;;;;;;;54.50;26.40;;;;;;;1.25;100.00;99583.14;105206;1262;72949;-57
2023/12/10 09:26:12;;;;;;;49.70;25.30;;;;;;;1.31;100.00;99577.23;105167;1261;69119;-57
2023/12/10 09:28:40;;;;;;;23.80;13.60;;;;;;;1.34;100.00;99584.23;105248;1260;69132;-57
2023/12/10 09:31:08;;;;;;;43.30;21.30;;;;;;;1.39;100.00;99588.33;105132;1263;73019;-56
2023/12/10 09:33:37;;;;;;;38.20;18.20;;;;;;;1.45;100.00;99582.38;105116;1261;81541;-57
2023/12/10 09:36:06;;;;;;;93.20;39.20;;;;;;;1.46;100.00;99592.69;105155;1262;72960;-57
2023/12/10 09:38:35;;;;;;;119.40;48.80;;;;;;;1.51;100.00;99590.39;105211;1262;69551;-57
2023/12/10 09:41:03;;;;;;;108.20;46.80;;;;;;;1.54;100.00;99590.85;105194;1263;69080;-57
2023/12/10 09:43:33;;;;;;;267.30;92.30;;;;;;;1.59;100.00;99590.80;105185;1257;72895;-57
2023/12/10 09:46:03;;;;;;;182.50;63.10;;;;;;;1.62;100.00;99595.58;105252;1260;81748;-56
2023/12/10 09:48:31;;;;;;;199.00;62.00;;;;;;;1.65;100.00;99595.04;105190;1262;73874;-57
2023/12/10 09:51:00;;;;;;;325.70;94.60;;;;;;;1.68;100.00;99592.75;105207;1262;69168;-57
2023/12/10 09:53:28;;;;;;;167.80;51.40;;;;;;;1.71;100.00;99594.78;105080;1263;69147;-57
2023/12/10 09:55:56;;;;;;;165.40;50.70;;;;;;;1.75;100.00;99592.48;105131;1260;71534;-57
2023/12/10 09:58:24;;;;;;;282.20;92.00;;;;;;;1.77;100.00;99584.35;105179;1261;81869;-57
2023/12/10 10:00:52;;;;;;;111.00;39.60;;;;;;;1.77;100.00;99588.14;105118;1270;71601;-57
2023/12/10 10:03:21;;;;;;;120.80;41.40;;;;;;;1.77;100.00;99591.58;105223;1258;69518;-57
2023/12/10 10:05:49;;;;;;;128.30;43.90;;;;;;;1.79;100.00;99588.80;105222;1262;69176;-57
2023/12/10 10:08:18;;;;;;;97.60;39.50;;;;;;;1.82;100.00;99598.40;105158;1260;75000;-56
2023/12/10 10:10:46;;;;;;;94.50;39.00;;;;;;;1.85;100.00;99600.27;105138;1263;81361;-56
2023/12/10 10:13:15;;;;;;;145.60;54.10;;;;;;;1.90;100.00;99598.64;105110;1257;70554;-57
2023/12/10 10:15:43;;;;;;;78.00;35.40;;;;;;;1.94;100.00;99601.50;105211;1263;69048;-57
2023/12/10 10:18:14;;;;;;;119.40;48.70;;;;;;;1.97;100.00;99601.28;105158;1262;69216;-56
2023/12/10 10:20:43;;;;;;;162.10;67.50;;;;;;;2.00;100.00;99603.31;105187;1257;74709;-57
2023/12/10 10:23:13;;;;;;;144.60;62.50;;;;;;;2.07;100.00;99604.59;105140;1260;81467;-56
2023/12/10 10:25:42;;;;;;;121.70;58.30;;;;;;;2.13;100.00;99608.45;105112;1258;70892;-57
2023/12/10 10:28:10;;;;;;;108.00;49.50;;;;;;;2.20;100.00;99602.13;105215;1260;69214;-57
2023/12/10 10:30:39;;;;;;;72.80;38.10;;;;;;;2.28;100.00;99602.70;105167;1263;69180;-56
2023/12/10 10:33:07;;;;;;;59.10;32.10;;;;;;;2.36;100.00;99602.06;105182;1264;73738;-56
2023/12/10 10:35:37;;;;;;;64.50;35.90;;;;;;;2.42;100.00;99601.77;105237;1260;82827;-56
2023/12/10 10:38:07;;;;;;;59.80;33.60;;;;;;;2.47;100.00;99602.05;105209;1261;71247;-57
2023/12/10 10:40:35;;;;;;;24.80;17.40;;;;;;;2.50;100.00;99600.80;105125;1260;69156;-56
2023/12/10 10:43:04;;;;;;;22.30;12.90;;;;;;;2.52;100.00;99611.79;105213;1258;69107;-56
2023/12/10 10:45:33;;;;;;;15.80;10.60;;;;;;;2.51;100.00;99613.36;105149;1263;72633;-56
2023/12/10 10:48:02;;;;;;;18.20;11.60;;;;;;;2.52;100.00;99612.30;105141;1260;82732;-56
2023/12/10 10:50:32;;;;;;;15.00;10.30;;;;;;;2.53;100.00;99615.40;105150;1257;71658;-56
2023/12/10 10:53:01;;;;;;;17.50;12.30;;;;;;;2.55;100.00;99619.84;105124;1262;69192;-56
2023/12/10 10:55:32;;;;;;;16.30;11.20;;;;;;;2.58;100.00;99624.96;105037;1270;144025;-56
2023/12/10 10:58:27;;;;;;;25.10;13.30;;;;;;;2.66;100.00;99624.14;105211;1260;73035;-56
2023/12/10 11:00:56;;;;;;;67.90;27.90;;;;;;;2.76;100.00;99621.55;105129;1260;81570;-56
2023/12/10 11:03:28;;;;;;;62.70;29.30;;;;;;;2.83;100.00;99619.19;105127;1261;72128;-55
2023/12/10 11:06:09;;;;;;;42.40;25.50;;;;;;;2.89;100.00;99625.28;105192;1257;69221;-57
2023/12/10 11:08:54;;;;;;;20.10;14.20;;;;;;;2.95;100.00;99631.56;105130;1262;69109;-55
2023/12/10 11:11:24;;;;;;;19.20;12.50;;;;;;;3.01;100.00;99633.88;105118;1262;71563;-56
2023/12/10 11:13:55;;;;;;;17.20;11.50;;;;;;;3.06;100.00;99632.56;105155;1264;81181;-56
2023/12/10 11:16:24;;;;;;;17.70;12.00;;;;;;;3.25;100.00;99639.48;105194;1257;70219;-56